createdAt,value
2023-04-15T00:00:18.411Z,6.88
2023-04-15T00:03:21.942Z,8.98
2023-04-15T00:06:24.068Z,8.80
2023-04-15T00:09:25.651Z,7.18
2023-04-15T00:12:27.964Z,7.45
2023-04-15T00:15:29.835Z,6.65
2023-04-15T00:18:31.780Z,6.10
2023-04-15T00:21:34.116Z,7.57
2023-04-15T00:24:35.956Z,10.52
2023-04-15T00:27:38.637Z,7.03
2023-04-15T00:30:40.709Z,7.22
2023-04-15T00:33:42.551Z,7.90
2023-04-15T00:36:44.786Z,6.13
2023-04-15T00:39:47.104Z,7.07
2023-04-15T00:42:48.934Z,6.93
2023-04-15T00:45:53.672Z,6.88
2023-04-15T00:48:56.227Z,10.15
2023-04-15T00:51:57.919Z,5.82
2023-04-15T00:55:00.081Z,6.45
2023-04-15T00:58:02.123Z,8.15
2023-04-15T01:01:04.736Z,7.43
2023-04-15T01:04:07.168Z,5.97
2023-04-15T01:07:09.310Z,6.88
2023-04-15T01:10:11.319Z,6.93
2023-04-15T01:13:13.105Z,6.95
2023-04-15T01:16:15.105Z,8.27
2023-04-15T01:19:18.090Z,6.53
2023-04-15T01:22:19.808Z,7.78
2023-04-15T01:25:34.946Z,8.88
2023-04-15T01:28:37.772Z,7.85
2023-04-15T01:31:40.205Z,7.13
2023-04-15T01:34:42.321Z,8.18
2023-04-15T01:37:44.246Z,6.05
2023-04-15T01:40:46.160Z,7.50
2023-04-15T01:43:48.847Z,8.23
2023-04-15T01:46:50.489Z,8.60
2023-04-15T01:49:52.716Z,9.60
2023-04-15T01:52:54.349Z,8.38
2023-04-15T01:55:56.332Z,9.80
2023-04-15T01:58:58.272Z,10.77
2023-04-15T02:02:00.595Z,10.32
2023-04-15T02:05:02.561Z,10.38
2023-04-15T02:08:04.326Z,10.45
2023-04-15T02:11:06.242Z,13.80
2023-04-15T02:14:07.935Z,10.90
2023-04-15T02:17:09.699Z,12.93
2023-04-15T02:20:12.055Z,12.70
2023-04-15T02:23:13.922Z,12.85
2023-04-15T02:26:18.864Z,12.93
2023-04-15T02:29:20.477Z,12.40
2023-04-15T02:32:24.556Z,13.57
2023-04-15T02:35:26.832Z,11.02
2023-04-15T02:38:31.074Z,12.10
2023-04-15T02:41:33.033Z,12.07
2023-04-15T02:44:36.547Z,15.23
2023-04-15T02:47:46.854Z,12.07
2023-04-15T02:50:48.528Z,12.13
2023-04-15T02:53:51.683Z,12.25
2023-04-15T02:56:55.612Z,15.18
2023-04-15T02:59:57.643Z,13.52
2023-04-15T03:03:04.801Z,13.45
2023-04-15T03:06:07.134Z,13.75
2023-04-15T03:09:09.619Z,13.80
2023-04-15T03:12:12.506Z,12.98
2023-04-15T03:15:14.523Z,12.95
2023-04-15T03:18:19.983Z,14.60
2023-04-15T03:21:21.784Z,13.10
2023-04-15T03:24:24.817Z,13.73
2023-04-15T03:27:27.966Z,14.68
2023-04-15T03:30:34.285Z,15.80
2023-04-15T03:33:36.155Z,15.00
2023-04-15T03:36:37.747Z,18.85
2023-04-15T03:39:39.383Z,16.05
2023-04-15T03:42:41.912Z,16.67
2023-04-15T03:45:43.716Z,17.98
2023-04-15T03:48:45.436Z,18.17
2023-04-15T03:51:47.151Z,18.65
2023-04-15T03:54:48.836Z,19.30
2023-04-15T03:57:50.581Z,15.52
2023-04-15T04:00:52.640Z,21.70
2023-04-15T04:03:54.535Z,19.90
2023-04-15T04:06:56.343Z,18.20
2023-04-15T04:09:58.243Z,18.48
2023-04-15T04:13:00.021Z,19.58
2023-04-15T04:16:02.047Z,20.35
2023-04-15T04:19:03.975Z,19.98
2023-04-15T04:22:06.507Z,21.63
2023-04-15T04:25:10.363Z,20.30
2023-04-15T04:28:12.331Z,24.60
2023-04-15T04:31:14.254Z,21.05
2023-04-15T04:34:16.536Z,22.40
2023-04-15T04:37:18.449Z,23.13
2023-04-15T04:40:20.121Z,24.05
2023-04-15T04:43:22.492Z,21.67
2023-04-15T04:46:24.230Z,24.00
2023-04-15T04:49:26.271Z,21.45
2023-04-15T04:52:28.189Z,23.50
2023-04-15T04:55:30.600Z,22.80
2023-04-15T04:58:32.304Z,22.80
2023-04-15T05:01:34.325Z,26.20
2023-04-15T05:04:37.125Z,20.48
2023-04-15T05:07:39.652Z,23.65
2023-04-15T05:10:41.298Z,21.40
2023-04-15T05:13:43.048Z,23.02
2023-04-15T05:16:44.772Z,23.63
2023-04-15T05:19:46.633Z,23.90
2023-04-15T05:22:48.590Z,22.60
2023-04-15T05:25:50.349Z,23.02
2023-04-15T05:28:52.087Z,23.17
2023-04-15T05:31:53.784Z,24.95
2023-04-15T05:34:55.706Z,22.83
2023-04-15T05:37:57.545Z,23.27
2023-04-15T05:40:59.376Z,22.10
2023-04-15T05:44:02.022Z,23.27
2023-04-15T05:47:03.746Z,21.92
2023-04-15T05:50:06.673Z,21.20
2023-04-15T05:53:09.098Z,22.83
2023-04-15T05:56:10.810Z,19.52
2023-04-15T05:59:12.739Z,20.52
2023-04-15T06:02:14.649Z,21.95
2023-04-15T06:05:16.341Z,17.67
2023-04-15T06:08:19.472Z,17.50
2023-04-15T06:11:22.030Z,18.35
2023-04-15T06:14:23.843Z,18.50
2023-04-15T06:17:25.641Z,16.67
2023-04-15T06:20:28.075Z,16.70
2023-04-15T06:23:30.028Z,15.73
2023-04-15T06:26:31.825Z,13.73
2023-04-15T06:29:33.596Z,14.80
2023-04-15T06:32:35.464Z,15.40
2023-04-15T06:35:37.294Z,15.50
2023-04-15T06:38:39.021Z,14.43
2023-04-15T06:41:40.806Z,12.93
2023-04-15T06:44:42.544Z,13.88
2023-04-15T06:47:44.235Z,13.20
2023-04-15T06:50:46.405Z,14.60
2023-04-15T06:53:48.380Z,12.68
2023-04-15T06:56:53.708Z,12.88
2023-04-15T06:59:55.567Z,14.38
2023-04-15T07:02:57.353Z,11.43
2023-04-15T07:05:59.067Z,12.40
2023-04-15T07:09:01.969Z,12.45
2023-04-15T07:12:04.445Z,10.50
2023-04-15T07:15:07.152Z,12.75
2023-04-15T07:18:09.949Z,8.95
2023-04-15T07:21:12.008Z,9.43
2023-04-15T07:24:18.021Z,9.70
2023-04-15T07:27:19.862Z,9.63
2023-04-15T07:30:21.737Z,7.07
2023-04-15T07:33:23.962Z,7.35
2023-04-15T07:36:26.092Z,7.03
2023-04-15T07:39:27.845Z,6.28
2023-04-15T07:42:29.764Z,8.82
2023-04-15T07:45:32.231Z,6.82
2023-04-15T07:48:35.530Z,6.88
2023-04-15T07:51:38.552Z,9.00
2023-04-15T07:54:40.457Z,9.13
2023-04-15T07:57:42.486Z,6.60
2023-04-15T08:00:44.834Z,5.82
2023-04-15T08:03:47.457Z,6.30
2023-04-15T08:06:50.432Z,6.72
2023-04-15T08:09:52.510Z,7.10
2023-04-15T08:12:57.792Z,7.80
2023-04-15T08:16:19.563Z,5.55
2023-04-15T08:19:21.887Z,6.38
2023-04-15T08:22:24.283Z,7.68
2023-04-15T08:25:26.576Z,6.00
2023-04-15T08:28:30.639Z,6.25
2023-04-15T08:31:32.625Z,6.63
2023-04-15T08:34:35.055Z,6.68
2023-04-15T08:37:36.968Z,8.23
2023-04-15T08:40:46.220Z,5.43
2023-04-15T08:44:02.378Z,7.68
2023-04-15T08:47:08.030Z,6.22
2023-04-15T08:50:11.108Z,6.68
2023-04-15T08:53:13.304Z,4.43
2023-04-15T08:56:20.363Z,6.25
2023-04-15T08:59:22.590Z,4.22
2023-04-15T09:02:26.571Z,5.07
2023-04-15T09:05:33.119Z,5.78
2023-04-15T09:08:35.905Z,6.32
2023-04-15T09:11:38.074Z,6.20
2023-04-15T09:14:47.375Z,4.10
2023-04-15T09:17:49.060Z,5.15
2023-04-15T09:20:53.781Z,5.70
2023-04-15T09:23:58.392Z,4.90
2023-04-15T09:27:00.565Z,4.72
2023-04-15T09:30:02.373Z,6.13
2023-04-15T09:33:13.760Z,5.60
2023-04-15T09:36:15.681Z,4.00
2023-04-15T09:39:17.432Z,4.75
2023-04-15T09:42:29.060Z,7.32
2023-04-15T09:45:32.049Z,7.47
2023-04-15T09:48:33.811Z,5.93
2023-04-15T09:51:36.610Z,5.63
2023-04-15T09:54:41.665Z,5.65
2023-04-15T09:57:44.692Z,6.57
2023-04-15T10:00:49.337Z,6.15
2023-04-15T10:03:52.260Z,6.18
2023-04-15T10:06:54.453Z,5.63
2023-04-15T10:09:56.645Z,7.25
2023-04-15T10:12:58.200Z,7.40
2023-04-15T10:16:02.693Z,7.05
2023-04-15T10:19:07.025Z,8.98
2023-04-15T10:22:09.176Z,10.57
2023-04-15T10:25:12.172Z,8.48
2023-04-15T10:28:15.590Z,8.25
2023-04-15T10:31:31.037Z,7.72
2023-04-15T10:34:33.626Z,10.63
2023-04-15T10:37:37.771Z,10.48
2023-04-15T10:40:40.025Z,10.25
2023-04-15T10:44:02.796Z,9.88
2023-04-15T10:47:19.081Z,12.65
2023-04-15T10:50:22.529Z,10.48
2023-04-15T10:53:32.282Z,12.13
2023-04-15T10:56:34.485Z,12.35
2023-04-15T10:59:38.044Z,15.82
2023-04-15T11:02:45.812Z,16.98
2023-04-15T11:05:54.455Z,14.15
2023-04-15T11:08:59.283Z,16.23
2023-04-15T11:12:09.032Z,18.27
2023-04-15T11:15:37.781Z,20.05
2023-04-15T11:18:39.677Z,19.77
2023-04-15T11:21:41.850Z,22.42
2023-04-15T11:24:52.454Z,21.05
2023-04-15T11:27:55.408Z,20.80
2023-04-15T11:30:58.581Z,24.92
2023-04-15T11:34:02.469Z,25.27
2023-04-15T11:37:08.012Z,23.98
2023-04-15T11:40:12.993Z,28.67
2023-04-15T11:43:22.567Z,30.17
2023-04-15T11:46:32.159Z,29.45
2023-04-15T11:49:35.239Z,36.70
2023-04-15T11:52:37.196Z,31.25
2023-04-15T11:55:44.899Z,33.97
2023-04-15T11:58:47.329Z,29.13
2023-04-15T12:01:50.125Z,35.83
2023-04-15T12:05:02.788Z,34.05
2023-04-15T12:08:07.594Z,36.30
2023-04-15T12:11:09.514Z,38.58
2023-04-15T12:14:32.723Z,40.65
2023-04-15T12:17:51.070Z,42.83
2023-04-15T12:20:54.597Z,43.60
2023-04-15T12:23:58.127Z,40.55
2023-04-15T12:27:05.020Z,47.42
2023-04-15T12:30:07.972Z,45.28
2023-04-15T12:33:10.435Z,48.88
2023-04-15T12:36:12.026Z,44.45
2023-04-15T12:39:13.832Z,49.30
2023-04-15T12:42:16.950Z,53.08
2023-04-15T12:45:18.599Z,59.08
2023-04-15T12:48:20.621Z,56.25
2023-04-15T12:51:22.420Z,55.45
2023-04-15T12:54:24.108Z,59.25
2023-04-15T12:57:26.027Z,53.70
2023-04-15T13:00:28.110Z,64.80
2023-04-15T13:03:33.020Z,55.42
2023-04-15T13:06:35.215Z,58.90
2023-04-15T13:09:36.922Z,62.72
2023-04-15T13:12:38.475Z,58.40
2023-04-15T13:15:40.758Z,62.45
2023-04-15T13:18:42.320Z,57.30
2023-04-15T13:21:44.114Z,58.63
2023-04-15T13:24:46.129Z,63.30
2023-04-15T13:27:48.308Z,58.65
2023-04-15T13:30:50.502Z,60.40
2023-04-15T13:33:52.528Z,57.03
2023-04-15T13:36:54.436Z,50.67
2023-04-15T13:39:57.058Z,53.17
2023-04-15T13:42:58.995Z,48.80
2023-04-15T13:46:01.405Z,48.83
2023-04-15T13:49:03.663Z,48.22
2023-04-15T13:52:05.772Z,49.13
2023-04-15T13:55:20.603Z,53.25
2023-04-15T13:58:25.915Z,45.63
2023-04-15T14:01:27.945Z,51.63
2023-04-15T14:04:31.718Z,43.53
2023-04-15T14:07:33.560Z,42.72
2023-04-15T14:10:35.521Z,43.10
2023-04-15T14:13:37.534Z,40.70
2023-04-15T14:16:39.568Z,41.03
2023-04-15T14:19:41.491Z,38.47
2023-04-15T14:22:43.661Z,38.50
2023-04-15T14:25:47.947Z,35.40
2023-04-15T14:28:50.585Z,36.42
2023-04-15T14:32:11.052Z,32.22
2023-04-15T14:35:15.708Z,34.17
2023-04-15T14:38:17.659Z,29.65
2023-04-15T14:41:19.681Z,33.80
2023-04-15T14:44:21.583Z,33.72
2023-04-15T14:47:23.641Z,34.20
2023-04-15T14:50:26.015Z,36.17
2023-04-15T14:53:29.288Z,33.83
2023-04-15T14:56:31.402Z,35.50
2023-04-15T14:59:34.901Z,36.08
2023-04-15T15:02:39.907Z,32.92
2023-04-15T15:05:44.811Z,32.25
2023-04-15T15:08:46.502Z,34.35
2023-04-15T15:11:48.461Z,35.55
2023-04-15T15:14:50.311Z,31.80
2023-04-15T15:17:52.270Z,33.08
2023-04-15T15:20:54.093Z,35.60
2023-04-15T15:23:55.992Z,33.92
2023-04-15T15:26:57.839Z,35.53
2023-04-15T15:29:59.849Z,31.17
2023-04-15T15:33:01.648Z,34.88
2023-04-15T15:36:04.825Z,31.58
2023-04-15T15:39:24.388Z,36.07
2023-04-15T15:42:37.463Z,32.55
2023-04-15T15:45:41.050Z,35.55
2023-04-15T15:48:43.365Z,31.75
2023-04-15T15:51:46.755Z,34.35
2023-04-15T15:54:49.268Z,37.15
2023-04-15T15:57:52.105Z,35.50
2023-04-15T16:00:55.416Z,38.58
2023-04-15T16:03:57.806Z,32.42
2023-04-15T16:06:59.793Z,34.83
2023-04-15T16:10:01.646Z,32.15
2023-04-15T16:13:03.524Z,33.53
2023-04-15T16:16:05.424Z,31.42
2023-04-15T16:19:07.312Z,34.25
2023-04-15T16:22:09.128Z,33.95
2023-04-15T16:25:14.140Z,35.20
2023-04-15T16:28:25.781Z,35.30
2023-04-15T16:31:28.637Z,32.30
2023-04-15T16:34:30.389Z,31.98
2023-04-15T16:37:33.329Z,31.00
2023-04-15T16:40:35.213Z,34.65
2023-04-15T16:43:37.121Z,38.90
2023-04-15T16:46:40.851Z,33.55
2023-04-15T16:49:42.923Z,37.47
2023-04-15T16:52:44.751Z,32.28
2023-04-15T16:55:46.869Z,39.60
2023-04-15T16:58:48.593Z,38.42
2023-04-15T17:01:50.704Z,36.50
2023-04-15T17:04:52.532Z,40.58
2023-04-15T17:07:55.165Z,36.13
2023-04-15T17:11:06.652Z,39.75
2023-04-15T17:14:09.119Z,40.55
2023-04-15T17:17:13.239Z,42.22
2023-04-15T17:20:17.413Z,43.10
2023-04-15T17:23:22.400Z,45.63
2023-04-15T17:26:24.412Z,44.70
2023-04-15T17:29:26.308Z,44.90
2023-04-15T17:32:34.886Z,46.60
2023-04-15T17:35:36.903Z,41.60
2023-04-15T17:38:39.052Z,45.40
2023-04-15T17:41:41.104Z,49.40
2023-04-15T17:44:42.888Z,42.40
2023-04-15T17:47:44.952Z,47.47
2023-04-15T17:50:56.179Z,49.70
2023-04-15T17:53:57.920Z,41.38
2023-04-15T17:57:01.379Z,44.78
2023-04-15T18:00:03.404Z,44.28
2023-04-15T18:03:14.847Z,39.78
2023-04-15T18:06:16.977Z,37.88
2023-04-15T18:09:19.849Z,38.30
2023-04-15T18:12:21.632Z,39.38
2023-04-15T18:15:23.327Z,39.10
2023-04-15T18:18:25.136Z,37.72
2023-04-15T18:21:27.116Z,34.10
2023-04-15T18:24:28.957Z,34.53
2023-04-15T18:27:32.404Z,34.72
2023-04-15T18:30:34.187Z,32.03
2023-04-15T18:33:36.196Z,34.05
2023-04-15T18:36:38.046Z,33.28
2023-04-15T18:39:40.132Z,30.65
2023-04-15T18:42:41.993Z,31.20
2023-04-15T18:45:44.021Z,30.98
2023-04-15T18:48:46.499Z,31.83
2023-04-15T18:51:48.376Z,27.95
2023-04-15T18:54:49.959Z,31.15
2023-04-15T18:57:51.750Z,29.83
2023-04-15T19:00:53.858Z,35.70
2023-04-15T19:03:55.625Z,34.53
2023-04-15T19:06:58.848Z,33.08
2023-04-15T19:10:00.797Z,33.90
2023-04-15T19:13:04.335Z,33.80
2023-04-15T19:16:06.694Z,34.17
2023-04-15T19:19:08.652Z,34.20
2023-04-15T19:22:10.571Z,32.45
2023-04-15T19:25:12.369Z,30.63
2023-04-15T19:28:14.243Z,32.92
2023-04-15T19:31:17.181Z,33.05
2023-04-15T19:34:19.063Z,37.10
2023-04-15T19:37:20.808Z,37.13
2023-04-15T19:40:22.759Z,33.75
2023-04-15T19:43:24.969Z,31.75
2023-04-15T19:46:27.907Z,33.00
2023-04-15T19:49:30.407Z,32.30
2023-04-15T19:52:32.242Z,33.97
2023-04-15T19:55:33.953Z,33.75
2023-04-15T19:58:35.732Z,33.90
2023-04-15T20:01:37.425Z,39.95
2023-04-15T20:04:39.666Z,33.63
2023-04-15T20:07:47.648Z,33.08
2023-04-15T20:10:49.502Z,31.98
2023-04-15T20:13:51.312Z,30.75
2023-04-15T20:16:52.990Z,31.90
2023-04-15T20:19:54.660Z,31.55
2023-04-15T20:22:56.484Z,32.30
2023-04-15T20:25:58.345Z,30.13
2023-04-15T20:29:00.507Z,27.45
2023-04-15T20:32:02.497Z,24.92
2023-04-15T20:35:05.664Z,18.88
2023-04-15T20:38:07.320Z,17.13
2023-04-15T20:41:09.034Z,14.70
2023-04-15T20:44:10.890Z,17.13
2023-04-15T20:47:12.792Z,16.33
2023-04-15T20:50:14.725Z,17.45
2023-04-15T20:53:16.640Z,16.02
2023-04-15T20:56:18.524Z,17.13
2023-04-15T20:59:20.647Z,15.10
2023-04-15T21:02:24.195Z,18.30
2023-04-15T21:05:26.094Z,17.10
2023-04-15T21:08:30.021Z,17.48
2023-04-15T21:11:53.271Z,16.40
2023-04-15T21:14:53.905Z,16.95
2023-04-15T21:17:55.873Z,16.13
2023-04-15T21:20:59.082Z,17.83
2023-04-15T21:24:00.891Z,18.45
2023-04-15T21:27:02.712Z,18.77
2023-04-15T21:30:04.750Z,18.85
2023-04-15T21:33:06.740Z,19.55
2023-04-15T21:36:08.751Z,20.17
2023-04-15T21:39:10.930Z,20.65
2023-04-15T21:42:12.744Z,18.83
2023-04-15T21:45:14.897Z,18.65
2023-04-15T21:48:16.739Z,19.48
2023-04-15T21:51:18.482Z,18.92
2023-04-15T21:54:20.479Z,20.67
2023-04-15T21:57:22.139Z,22.98
2023-04-15T22:00:24.359Z,22.65
2023-04-15T22:03:29.406Z,23.30
2023-04-15T22:06:32.387Z,24.23
2023-04-15T22:09:34.159Z,23.05
2023-04-15T22:12:36.223Z,28.02
2023-04-15T22:15:41.575Z,22.98
2023-04-15T22:18:43.301Z,23.83
2023-04-15T22:21:46.241Z,24.92
2023-04-15T22:24:48.086Z,24.58
2023-04-15T22:27:49.803Z,24.48
2023-04-15T22:30:54.223Z,26.98
2023-04-15T22:33:56.343Z,26.52
2023-04-15T22:36:57.979Z,26.83
2023-04-15T22:39:59.856Z,27.02
2023-04-15T22:43:01.673Z,25.25
2023-04-15T22:46:03.367Z,24.25
2023-04-15T22:49:11.045Z,27.17
2023-04-15T22:52:23.343Z,26.48
2023-04-15T22:55:31.631Z,29.90
2023-04-15T22:58:33.308Z,27.40
2023-04-15T23:01:35.394Z,25.98
2023-04-15T23:04:37.312Z,26.08
2023-04-15T23:07:39.131Z,23.80
2023-04-15T23:10:41.095Z,29.48
2023-04-15T23:13:42.673Z,28.50
2023-04-15T23:16:45.468Z,28.20
2023-04-15T23:19:47.132Z,27.35
2023-04-15T23:22:48.795Z,29.88
2023-04-15T23:25:50.762Z,29.00
2023-04-15T23:28:52.459Z,28.00
2023-04-15T23:31:54.374Z,31.90
2023-04-15T23:34:56.018Z,25.85
2023-04-15T23:37:57.683Z,30.23
2023-04-15T23:40:59.261Z,29.85
2023-04-15T23:44:01.064Z,28.70
2023-04-15T23:47:02.807Z,31.35
2023-04-15T23:50:05.298Z,28.88
2023-04-15T23:53:06.910Z,29.85
2023-04-15T23:56:08.724Z,25.42
2023-04-15T23:59:10.697Z,30.60
